Time;durP1;ratioP1;P1;durP2;ratioP2;P2;SDS_P1;SDS_P2;PMS_P1;PMS_P2;Temp;Humidity;BMP_temperature;BMP_pressure;BME280_temperature;BME280_humidity;BME280_pressure;Samples;Min_cycle;Max_cycle;Signal;HPM_P1;HPM_P2
2022/08/21 00:00:48;;;;;;;8.00;6.70;;;;;;;;;;4986251;28;20432;-89
2022/08/21 00:03:14;;;;;;;8.33;7.77;;;;;;;;;;4986407;28;20470;-89
2022/08/21 00:05:49;;;;;;;9.47;8.20;;;;;;;;;;4985298;28;20533;-89
2022/08/21 00:08:16;;;;;;;13.27;9.70;;;;;;;;;;4960382;28;20412;-89
2022/08/21 00:10:43;;;;;;;10.90;9.17;;;;;;;;;;4974300;28;20459;-88
2022/08/21 00:13:10;;;;;;;11.00;10.00;;;;;;;;;;4993929;28;20488;-89
2022/08/21 00:15:37;;;;;;;7.97;7.33;;;;;;;;;;4972488;28;20509;-88
2022/08/21 00:18:04;;;;;;;9.43;8.63;;;;;;;;;;4968797;28;20445;-88
2022/08/21 00:20:30;;;;;;;8.33;7.70;;;;;;;;;;4985181;28;20440;-88
2022/08/21 00:22:56;;;;;;;12.73;7.30;;;;;;;;;;4988784;28;20464;-88
2022/08/21 00:25:22;;;;;;;7.43;6.90;;;;;;;;;;4980585;28;20504;-88
2022/08/21 00:27:49;;;;;;;7.60;6.87;;;;;;;;;;4966203;28;20428;-88
2022/08/21 00:30:16;;;;;;;7.43;6.83;;;;;;;;;;4979197;28;20441;-88
2022/08/21 00:32:42;;;;;;;7.60;7.20;;;;;;;;;;4984563;28;20906;-89
2022/08/21 00:35:09;;;;;;;7.77;6.70;;;;;;;;;;4970472;28;20592;-88
2022/08/21 00:37:35;;;;;;;7.97;7.07;;;;;;;;;;4965238;28;20424;-88
2022/08/21 00:40:01;;;;;;;7.40;6.90;;;;;;;;;;4981182;28;20446;-87
2022/08/21 00:42:30;;;;;;;11.20;7.13;;;;;;;;;;4965231;28;20432;-89
2022/08/21 00:44:56;;;;;;;7.60;6.97;;;;;;;;;;4963150;28;20517;-89
2022/08/21 00:47:22;;;;;;;8.57;7.83;;;;;;;;;;4951513;28;20441;-89
2022/08/21 00:49:48;;;;;;;10.80;7.97;;;;;;;;;;4960444;28;20459;-89
2022/08/21 00:52:17;;;;;;;8.57;7.80;;;;;;;;;;4971278;28;20456;-89
2022/08/21 00:54:43;;;;;;;7.67;7.07;;;;;;;;;;4971778;28;20519;-89
2022/08/21 00:57:18;;;;;;;9.37;8.77;;;;;;;;;;4968846;28;20464;-89
2022/08/21 00:59:45;;;;;;;11.17;9.77;;;;;;;;;;4963382;28;20945;-89
2022/08/21 01:02:12;;;;;;;8.20;7.57;;;;;;;;;;4967301;28;20448;-89
2022/08/21 01:04:38;;;;;;;8.90;7.50;;;;;;;;;;4959506;28;20464;-89
2022/08/21 01:07:04;;;;;;;8.77;7.87;;;;;;;;;;4967916;28;20837;-89
2022/08/21 01:09:30;;;;;;;7.20;6.60;;;;;;;;;;4960632;28;20951;-89
2022/08/21 01:11:56;;;;;;;8.00;7.60;;;;;;;;;;4971079;28;20456;-90
2022/08/21 01:14:22;;;;;;;8.73;7.77;;;;;;;;;;4958581;28;20529;-89
2022/08/21 01:16:50;;;;;;;10.03;9.10;;;;;;;;;;4967290;28;20432;-90
2022/08/21 01:19:17;;;;;;;9.73;9.03;;;;;;;;;;4966495;28;20966;-90
2022/08/21 01:21:43;;;;;;;10.43;9.63;;;;;;;;;;4986942;28;20974;-89
2022/08/21 01:24:09;;;;;;;9.87;8.97;;;;;;;;;;4992560;28;20459;-90
2022/08/21 01:26:36;;;;;;;14.00;12.37;;;;;;;;;;4972657;28;20463;-90
2022/08/21 01:29:13;;;;;;;11.07;10.07;;;;;;;;;;4973929;28;20525;-90
2022/08/21 01:31:40;;;;;;;10.50;9.60;;;;;;;;;;4965509;28;20482;-90
2022/08/21 01:34:06;;;;;;;11.67;10.53;;;;;;;;;;4961488;28;20556;-89
2022/08/21 01:36:32;;;;;;;12.33;10.37;;;;;;;;;;4955454;28;20551;-89
2022/08/21 01:38:58;;;;;;;14.90;10.17;;;;;;;;;;4969220;28;20457;-88
2022/08/21 01:41:24;;;;;;;11.60;10.60;;;;;;;;;;4985985;28;20467;-89
2022/08/21 01:43:50;;;;;;;13.87;12.20;;;;;;;;;;4981692;28;20500;-89
2022/08/21 01:46:16;;;;;;;12.57;11.40;;;;;;;;;;5010539;28;20435;-89
2022/08/21 01:48:43;;;;;;;18.00;11.40;;;;;;;;;;4971210;28;20476;-87
2022/08/21 01:51:09;;;;;;;12.07;11.07;;;;;;;;;;4960520;28;20432;-89
2022/08/21 01:53:36;;;;;;;13.20;12.27;;;;;;;;;;4970426;28;20824;-89
2022/08/21 01:56:03;;;;;;;13.40;12.00;;;;;;;;;;4963351;28;20966;-89
2022/08/21 01:58:29;;;;;;;11.63;10.63;;;;;;;;;;4953412;28;20488;-88
2022/08/21 02:00:55;;;;;;;12.57;11.27;;;;;;;;;;5001611;28;20454;-87
2022/08/21 02:03:21;;;;;;;9.23;8.30;;;;;;;;;;4963384;28;20480;-89
2022/08/21 02:05:47;;;;;;;10.00;8.93;;;;;;;;;;4967153;28;20547;-88
2022/08/21 02:08:13;;;;;;;8.70;8.00;;;;;;;;;;4963937;28;20495;-88
2022/08/21 02:10:40;;;;;;;11.60;9.30;;;;;;;;;;4969390;28;20442;-88
2022/08/21 02:13:07;;;;;;;11.07;8.80;;;;;;;;;;4979552;28;20520;-89
2022/08/21 02:15:33;;;;;;;8.90;8.20;;;;;;;;;;4988784;28;20429;-88
2022/08/21 02:18:00;;;;;;;9.50;8.73;;;;;;;;;;4970789;28;20511;-88
2022/08/21 02:20:29;;;;;;;10.40;9.40;;;;;;;;;;4964150;28;20435;-89
2022/08/21 02:22:55;;;;;;;9.70;8.80;;;;;;;;;;4968565;28;20563;-88
2022/08/21 02:25:24;;;;;;;10.20;9.33;;;;;;;;;;4967262;28;20425;-88
2022/08/21 02:27:50;;;;;;;8.90;8.40;;;;;;;;;;4974768;28;20444;-88
2022/08/21 02:30:17;;;;;;;11.43;8.37;;;;;;;;;;4975241;28;20427;-88
2022/08/21 02:32:43;;;;;;;10.03;8.80;;;;;;;;;;4973387;28;20606;-89
2022/08/21 02:35:11;;;;;;;8.70;8.10;;;;;;;;;;4961660;28;20588;-88
2022/08/21 02:37:44;;;;;;;8.80;8.17;;;;;;;;;;4974432;28;20440;-88
2022/08/21 02:40:11;;;;;;;8.97;8.17;;;;;;;;;;4963870;28;20432;-89
2022/08/21 02:42:38;;;;;;;11.67;10.77;;;;;;;;;;4971444;28;20818;-89
2022/08/21 02:45:04;;;;;;;8.13;7.60;;;;;;;;;;4962514;28;20420;-88
2022/08/21 02:47:30;;;;;;;8.80;8.10;;;;;;;;;;4972895;28;20432;-88
2022/08/21 02:49:56;;;;;;;8.90;8.40;;;;;;;;;;4967287;28;20828;-88
2022/08/21 02:52:23;;;;;;;13.37;9.37;;;;;;;;;;4972053;28;20846;-88
2022/08/21 02:54:49;;;;;;;8.77;8.27;;;;;;;;;;4960884;28;20435;-88
2022/08/21 02:57:15;;;;;;;10.63;9.60;;;;;;;;;;4969540;28;20910;-88
2022/08/21 02:59:41;;;;;;;10.10;9.10;;;;;;;;;;4957887;28;20954;-88
2022/08/21 03:02:07;;;;;;;9.20;8.40;;;;;;;;;;4963845;28;20448;-88
2022/08/21 03:04:33;;;;;;;9.23;8.40;;;;;;;;;;4962412;28;20477;-88
2022/08/21 03:07:00;;;;;;;8.70;7.97;;;;;;;;;;4969068;28;20464;-88
2022/08/21 03:09:26;;;;;;;8.53;7.83;;;;;;;;;;4973843;28;20448;-89
2022/08/21 03:59:32;;;;;;;9.33;8.47;;;;;;;;;;6085633;23;20394;-86
2022/08/21 04:01:59;;;;;;;8.20;7.40;;;;;;;;;;4959829;28;20547;-88
2022/08/21 04:04:25;;;;;;;8.20;7.40;;;;;;;;;;4951922;28;20677;-87
2022/08/21 04:06:51;;;;;;;9.27;8.67;;;;;;;;;;4985531;28;20984;-87
2022/08/21 04:09:18;;;;;;;8.53;7.97;;;;;;;;;;4966766;28;20445;-91
2022/08/21 04:11:45;;;;;;;8.80;8.20;;;;;;;;;;5713682;23;20483;-94
2022/08/21 05:00:57;;;;;;;11.43;10.43;;;;;;;;;;5900610;23;24227;-95
2022/08/21 05:03:26;;;;;;;11.27;10.43;;;;;;;;;;4979966;28;20491;-95
2022/08/21 05:05:58;;;;;;;13.03;11.93;;;;;;;;;;4960652;29;20492;-95
2022/08/21 05:23:58;;;;;;;10.40;9.60;;;;;;;;;;5712627;23;20480;-95
2022/08/21 06:44:22;;;;;;;10.83;9.93;;;;;;;;;;5692964;23;20502;-88
2022/08/21 06:46:52;;;;;;;10.83;9.90;;;;;;;;;;5551203;23;20466;-94
2022/08/21 06:57:00;;;;;;;8.60;7.50;;;;;;;;;;5026780;23;20481;-93
2022/08/21 06:59:26;;;;;;;8.37;7.70;;;;;;;;;;4978942;28;20457;-90
2022/08/21 07:04:28;;;;;;;8.07;7.27;;;;;;;;;;4956909;28;20478;-92
2022/08/21 07:06:55;;;;;;;6.80;6.30;;;;;;;;;;4975804;28;20470;-93
2022/08/21 07:11:57;;;;;;;7.87;7.10;;;;;;;;;;5203625;23;20452;-91
2022/08/21 07:14:46;;;;;;;6.57;6.17;;;;;;;;;;4962899;28;20433;-90
2022/08/21 07:20:15;;;;;;;6.30;5.90;;;;;;;;;;5460733;23;20471;-94
2022/08/21 07:22:41;;;;;;;5.60;5.30;;;;;;;;;;5036464;23;21786;-94
2022/08/21 07:25:08;;;;;;;8.00;6.30;;;;;;;;;;5418476;23;20487;-93
2022/08/21 07:30:10;;;;;;;6.20;5.70;;;;;;;;;;5108037;23;20496;-94
2022/08/21 07:32:36;;;;;;;6.17;5.77;;;;;;;;;;5037296;28;20450;-95
2022/08/21 07:35:02;;;;;;;7.60;6.30;;;;;;;;;;5401408;23;20542;-93
2022/08/21 07:40:41;;;;;;;6.80;6.30;;;;;;;;;;5156206;23;20488;-92
2022/08/21 07:45:43;;;;;;;5.77;5.27;;;;;;;;;;5412543;23;20438;-90
2022/08/21 07:50:35;;;;;;;6.07;5.67;;;;;;;;;;5067921;23;20491;-92
2022/08/21 07:53:02;;;;;;;7.27;5.40;;;;;;;;;;5142938;23;20236;-92
2022/08/21 07:55:28;;;;;;;5.17;4.83;;;;;;;;;;5157826;23;20474;-93
2022/08/21 07:57:54;;;;;;;5.20;4.80;;;;;;;;;;5005383;28;20450;-90
2022/08/21 08:00:22;;;;;;;6.00;5.50;;;;;;;;;;4978180;28;20503;-88
2022/08/21 08:02:50;;;;;;;6.40;5.03;;;;;;;;;;4992740;28;20451;-88
2022/08/21 08:05:16;;;;;;;4.67;4.47;;;;;;;;;;4973698;28;20447;-91
2022/08/21 08:07:42;;;;;;;4.87;4.57;;;;;;;;;;5198027;23;20478;-94
2022/08/21 08:10:09;;;;;;;5.67;5.17;;;;;;;;;;5014902;23;20498;-93
2022/08/21 08:12:36;;;;;;;6.33;4.70;;;;;;;;;;5002072;28;20420;-93
2022/08/21 08:15:04;;;;;;;4.07;3.67;;;;;;;;;;4988280;28;20499;-92
2022/08/21 08:17:31;;;;;;;4.67;4.27;;;;;;;;;;4998434;28;20435;-93
2022/08/21 08:19:58;;;;;;;3.50;3.40;;;;;;;;;;5003778;28;20405;-92
2022/08/21 08:22:24;;;;;;;3.40;3.20;;;;;;;;;;4991194;28;21008;-92
2022/08/21 08:24:51;;;;;;;3.80;3.50;;;;;;;;;;4967274;28;20933;-91
2022/08/21 08:27:18;;;;;;;3.83;3.07;;;;;;;;;;4993762;28;20809;-92
2022/08/21 08:29:44;;;;;;;4.33;2.37;;;;;;;;;;4968149;28;20406;-90
2022/08/21 08:32:10;;;;;;;3.00;2.80;;;;;;;;;;4981987;28;20432;-91
2022/08/21 08:34:37;;;;;;;2.87;2.83;;;;;;;;;;4969729;28;20434;-93
2022/08/21 08:37:04;;;;;;;2.70;2.60;;;;;;;;;;4982462;28;20848;-92
2022/08/21 08:39:32;;;;;;;3.77;2.60;;;;;;;;;;4965553;28;20567;-91
2022/08/21 08:42:15;;;;;;;2.57;2.47;;;;;;;;;;4979444;28;20464;-90
2022/08/21 08:44:42;;;;;;;3.20;3.10;;;;;;;;;;4981266;28;20468;-90
2022/08/21 08:47:10;;;;;;;2.27;2.20;;;;;;;;;;5012915;28;20447;-92
2022/08/21 08:49:55;;;;;;;2.67;2.47;;;;;;;;;;4996609;28;20448;-92
2022/08/21 08:52:27;;;;;;;3.07;2.80;;;;;;;;;;4987032;28;20428;-91
2022/08/21 08:55:03;;;;;;;2.90;2.73;;;;;;;;;;4987818;28;20452;-93
2022/08/21 08:57:30;;;;;;;2.90;2.67;;;;;;;;;;4960454;28;20425;-91
2022/08/21 08:59:59;;;;;;;2.40;2.30;;;;;;;;;;4986384;28;20432;-92
2022/08/21 09:02:28;;;;;;;2.67;2.47;;;;;;;;;;4998149;28;20465;-92
2022/08/21 09:04:55;;;;;;;2.73;2.60;;;;;;;;;;5008372;28;20558;-92
2022/08/21 09:07:45;;;;;;;2.40;2.30;;;;;;;;;;4987670;28;20435;-90
2022/08/21 09:10:11;;;;;;;2.23;2.13;;;;;;;;;;4976969;28;20783;-92
2022/08/21 09:12:53;;;;;;;2.53;2.13;;;;;;;;;;5067175;23;21028;-91
2022/08/21 09:15:23;;;;;;;2.37;2.13;;;;;;;;;;4979213;28;20515;-87
2022/08/21 09:18:14;;;;;;;3.13;2.80;;;;;;;;;;4982833;28;20499;-89
2022/08/21 09:20:59;;;;;;;5.07;2.53;;;;;;;;;;4938792;29;20438;-88
2022/08/21 09:23:37;;;;;;;2.13;2.07;;;;;;;;;;4955388;28;20472;-88
2022/08/21 09:26:03;;;;;;;4.27;2.23;;;;;;;;;;4959610;28;20428;-87
2022/08/21 09:28:32;;;;;;;1.73;1.63;;;;;;;;;;4978362;28;20449;-89
2022/08/21 09:31:02;;;;;;;2.03;1.93;;;;;;;;;;4959492;28;20917;-88
2022/08/21 09:33:28;;;;;;;2.67;2.57;;;;;;;;;;4951567;28;20970;-87
2022/08/21 09:35:57;;;;;;;2.23;2.10;;;;;;;;;;4964085;28;20980;-87
2022/08/21 09:38:34;;;;;;;2.20;2.10;;;;;;;;;;4964329;28;20460;-86
2022/08/21 09:41:05;;;;;;;2.47;2.37;;;;;;;;;;4958969;28;20447;-88
2022/08/21 09:43:32;;;;;;;2.30;2.20;;;;;;;;;;4963870;28;20468;-87
2022/08/21 09:46:07;;;;;;;2.13;1.83;;;;;;;;;;4961944;28;20440;-86
2022/08/21 09:48:48;;;;;;;2.30;2.20;;;;;;;;;;4990621;28;20877;-87
2022/08/21 09:51:20;;;;;;;2.77;2.67;;;;;;;;;;4941871;29;20477;-88
2022/08/21 09:53:48;;;;;;;2.20;2.10;;;;;;;;;;4955080;28;20451;-89
2022/08/21 09:59:14;;;;;;;2.13;2.00;;;;;;;;;;4984967;28;20435;-88
2022/08/21 10:01:44;;;;;;;2.33;2.23;;;;;;;;;;4936587;29;20469;-87
2022/08/21 10:04:11;;;;;;;1.50;1.50;;;;;;;;;;4954799;28;20473;-88
2022/08/21 10:06:37;;;;;;;1.57;1.50;;;;;;;;;;4994658;28;20429;-89
2022/08/21 10:09:13;;;;;;;2.23;2.13;;;;;;;;;;4971277;28;20431;-88
2022/08/21 10:11:45;;;;;;;1.80;1.70;;;;;;;;;;4939551;29;20426;-88
2022/08/21 10:14:31;;;;;;;2.33;2.23;;;;;;;;;;4988642;28;20514;-86
2022/08/21 10:17:11;;;;;;;1.53;1.43;;;;;;;;;;4613716;28;10000488;-88
2022/08/21 10:20:03;;;;;;;1.63;1.60;;;;;;;;;;4969330;28;20192;-87
2022/08/21 10:22:35;;;;;;;2.30;2.10;;;;;;;;;;4973361;28;20427;-88
2022/08/21 10:25:13;;;;;;;1.80;1.70;;;;;;;;;;4969824;28;20556;-88
2022/08/21 10:27:58;;;;;;;1.93;1.83;;;;;;;;;;4976711;28;20444;-88
2022/08/21 10:30:44;;;;;;;1.43;1.40;;;;;;;;;;5004062;28;20460;-88
2022/08/21 10:36:05;;;;;;;1.60;1.60;;;;;;;;;;5011517;28;20517;-87
2022/08/21 10:38:40;;;;;;;1.60;1.50;;;;;;;;;;4991517;28;20447;-88
2022/08/21 10:41:28;;;;;;;2.33;2.13;;;;;;;;;;4998540;28;20443;-86
2022/08/21 10:43:54;;;;;;;1.73;1.63;;;;;;;;;;4996568;28;20454;-88
2022/08/21 10:46:56;;;;;;;1.93;1.77;;;;;;;;;;4998918;28;20443;-86
2022/08/21 10:49:34;;;;;;;2.03;1.90;;;;;;;;;;4949120;28;20502;-84
2022/08/21 10:52:21;;;;;;;2.30;2.13;;;;;;;;;;4989322;28;20441;-88
2022/08/21 10:55:00;;;;;;;1.53;1.43;;;;;;;;;;4978917;28;20455;-86
2022/08/21 10:57:26;;;;;;;2.00;1.90;;;;;;;;;;4976688;28;20831;-88
2022/08/21 11:00:03;;;;;;;1.80;1.70;;;;;;;;;;4975983;28;20476;-88
2022/08/21 11:02:36;;;;;;;1.40;1.30;;;;;;;;;;5000817;28;20949;-87
2022/08/21 11:05:16;;;;;;;2.40;2.00;;;;;;;;;;4997205;28;20427;-90
2022/08/21 11:07:52;;;;;;;4.03;3.80;;;;;;;;;;5007182;28;20462;-89
2022/08/21 11:10:23;;;;;;;1.50;1.50;;;;;;;;;;4996182;28;20480;-89
2022/08/21 11:12:55;;;;;;;2.63;1.87;;;;;;;;;;4990835;28;20990;-88
2022/08/21 11:15:27;;;;;;;1.83;1.80;;;;;;;;;;4981577;28;20416;-88
2022/08/21 11:18:10;;;;;;;2.17;1.43;;;;;;;;;;5011144;28;20458;-87
2022/08/21 11:21:12;;;;;;;1.73;1.73;;;;;;;;;;4991305;28;20432;-87
2022/08/21 11:23:52;;;;;;;1.70;1.70;;;;;;;;;;4931790;29;20443;-88
2022/08/21 11:26:21;;;;;;;1.80;1.80;;;;;;;;;;4984329;28;20466;-88
2022/08/21 11:29:04;;;;;;;1.77;1.77;;;;;;;;;;4995137;28;20616;-88
2022/08/21 11:31:40;;;;;;;2.67;1.80;;;;;;;;;;4999610;28;20847;-89
2022/08/21 11:34:21;;;;;;;1.40;1.40;;;;;;;;;;4996000;28;20565;-88
2022/08/21 11:37:16;;;;;;;2.87;2.10;;;;;;;;;;4997780;28;20486;-88
2022/08/21 11:40:00;;;;;;;1.63;1.53;;;;;;;;;;4990930;28;20953;-88
2022/08/21 11:42:45;;;;;;;1.00;1.00;;;;;;;;;;4996777;28;20444;-86
2022/08/21 11:45:22;;;;;;;2.40;1.33;;;;;;;;;;4993814;28;20495;-89
2022/08/21 11:48:11;;;;;;;2.07;2.07;;;;;;;;;;4988969;28;20447;-86
2022/08/21 11:50:39;;;;;;;1.47;1.40;;;;;;;;;;4970732;28;20537;-89
2022/08/21 11:53:30;;;;;;;1.27;1.27;;;;;;;;;;5012614;28;20437;-88
2022/08/21 11:56:06;;;;;;;1.30;1.30;;;;;;;;;;4977629;28;20438;-87
2022/08/21 11:58:32;;;;;;;1.17;1.17;;;;;;;;;;4995667;28;20518;-89
2022/08/21 12:01:05;;;;;;;1.23;1.23;;;;;;;;;;4997195;28;20429;-88
2022/08/21 12:03:34;;;;;;;2.27;1.50;;;;;;;;;;5020677;28;20427;-88
2022/08/21 12:06:13;;;;;;;1.37;1.37;;;;;;;;;;5001716;28;20447;-90
2022/08/21 12:08:46;;;;;;;4.57;4.27;;;;;;;;;;5018250;28;20451;-87
2022/08/21 12:11:21;;;;;;;3.70;2.27;;;;;;;;;;5002805;28;20431;-93
2022/08/21 12:14:08;;;;;;;1.03;1.03;;;;;;;;;;5009233;28;20472;-91
2022/08/21 12:16:38;;;;;;;1.40;1.40;;;;;;;;;;5013608;28;20385;-92
2022/08/21 12:19:13;;;;;;;1.87;1.87;;;;;;;;;;5014147;28;20431;-90
2022/08/21 12:22:06;;;;;;;1.50;1.40;;;;;;;;;;4996179;28;20816;-92
2022/08/21 12:24:46;;;;;;;1.20;1.10;;;;;;;;;;5007342;28;20432;-93
2022/08/21 12:27:27;;;;;;;;;;;;;;;;;;;;;
2022/08/21 12:32:43;;;;;;;1.60;1.50;;;;;;;;;;5094862;23;20524;-91
2022/08/21 12:35:12;;;;;;;1.90;1.80;;;;;;;;;;5025255;28;20490;-91
2022/08/21 12:48:49;;;;;;;1.33;1.33;;;;;;;;;;5021605;28;20495;-91
2022/08/21 12:51:17;;;;;;;1.30;1.20;;;;;;;;;;5001208;28;20432;-93
2022/08/21 12:53:52;;;;;;;3.73;1.60;;;;;;;;;;4997497;28;20461;-90
2022/08/21 12:56:31;;;;;;;1.70;1.70;;;;;;;;;;4989858;28;20423;-92
2022/08/21 12:59:13;;;;;;;1.90;1.80;;;;;;;;;;5027119;28;20821;-89
2022/08/21 13:01:58;;;;;;;1.10;1.10;;;;;;;;;;5018580;28;20430;-90
2022/08/21 13:04:43;;;;;;;1.00;1.00;;;;;;;;;;5077860;23;20509;-93
2022/08/21 13:07:59;;;;;;;1.23;1.13;;;;;;;;;;5010221;28;20947;-91
2022/08/21 13:10:37;;;;;;;1.10;1.10;;;;;;;;;;5031015;28;20442;-93
2022/08/21 13:13:20;;;;;;;2.20;1.27;;;;;;;;;;5012822;28;20518;-92
2022/08/21 13:15:48;;;;;;;1.57;1.57;;;;;;;;;;5011146;28;20434;-91
2022/08/21 13:18:40;;;;;;;1.30;1.20;;;;;;;;;;5022326;28;20710;-89
2022/08/21 13:21:15;;;;;;;0.90;0.90;;;;;;;;;;5021436;28;20433;-93
2022/08/21 13:23:47;;;;;;;1.43;1.43;;;;;;;;;;5019890;28;20445;-93
2022/08/21 13:26:19;;;;;;;1.47;1.10;;;;;;;;;;5028337;28;20439;-93
2022/08/21 13:29:06;;;;;;;2.10;2.00;;;;;;;;;;5020477;28;20534;-89
2022/08/21 13:31:33;;;;;;;1.90;1.87;;;;;;;;;;5021211;28;20432;-93
2022/08/21 13:33:59;;;;;;;1.57;1.40;;;;;;;;;;5022206;28;20485;-91
2022/08/21 13:36:27;;;;;;;0.90;0.90;;;;;;;;;;5027611;28;20455;-94
2022/08/21 13:38:54;;;;;;;0.93;0.93;;;;;;;;;;5026845;28;20464;-93
2022/08/21 13:41:41;;;;;;;;;;;;;;;;;;;;;
2022/08/21 13:44:45;;;;;;;1.20;1.20;;;;;;;;;;5034441;28;20478;-90
2022/08/21 13:55:00;;;;;;;1.13;1.13;;;;;;;;;;5017277;28;20510;-92
2022/08/21 13:57:31;;;;;;;1.40;1.40;;;;;;;;;;5001701;28;20434;-92
2022/08/21 14:03:00;;;;;;;1.20;1.20;;;;;;;;;;5017389;28;20440;-95
2022/08/21 14:05:28;;;;;;;1.40;1.40;;;;;;;;;;5010990;28;20487;-91
2022/08/21 14:08:15;;;;;;;1.20;1.20;;;;;;;;;;5031311;28;21024;-92
2022/08/21 14:10:52;;;;;;;2.00;1.90;;;;;;;;;;5008362;28;20482;-93
2022/08/21 14:13:30;;;;;;;3.03;2.20;;;;;;;;;;4997194;28;20486;-91
2022/08/21 14:16:00;;;;;;;4.90;2.33;;;;;;;;;;5028969;28;20893;-91
2022/08/21 14:18:30;;;;;;;1.80;1.80;;;;;;;;;;5007647;28;20454;-92
2022/08/21 14:21:16;;;;;;;2.53;1.60;;;;;;;;;;5007347;28;20447;-90
2022/08/21 14:23:44;;;;;;;1.87;1.80;;;;;;;;;;5005064;28;20435;-89
2022/08/21 14:26:10;;;;;;;2.33;2.23;;;;;;;;;;5004185;28;20439;-92
2022/08/21 14:28:52;;;;;;;2.87;1.10;;;;;;;;;;5021698;28;20459;-90
2022/08/21 14:31:20;;;;;;;1.57;1.57;;;;;;;;;;5010963;28;20422;-92
2022/08/21 14:33:47;;;;;;;1.50;1.50;;;;;;;;;;4995120;28;20849;-91
2022/08/21 14:36:25;;;;;;;1.40;1.33;;;;;;;;;;5004765;28;20534;-93
2022/08/21 14:38:51;;;;;;;1.10;1.00;;;;;;;;;;5003566;28;20530;-90
2022/08/21 14:41:23;;;;;;;2.20;1.50;;;;;;;;;;5007786;28;20438;-88
2022/08/21 14:43:49;;;;;;;1.43;1.27;;;;;;;;;;5006779;28;20427;-88
2022/08/21 14:46:21;;;;;;;1.57;1.30;;;;;;;;;;5008174;28;20436;-93
2022/08/21 14:48:48;;;;;;;1.00;1.00;;;;;;;;;;4983233;28;20453;-92
2022/08/21 14:51:14;;;;;;;1.43;1.33;;;;;;;;;;4991202;28;20877;-91
2022/08/21 14:53:44;;;;;;;1.20;1.20;;;;;;;;;;5002317;28;20476;-91
2022/08/21 14:56:13;;;;;;;1.87;1.77;;;;;;;;;;4979323;28;20476;-92
2022/08/21 14:58:44;;;;;;;1.80;1.40;;;;;;;;;;4978714;28;20428;-92
2022/08/21 15:01:15;;;;;;;1.53;1.50;;;;;;;;;;4975054;28;20448;-89
2022/08/21 15:03:42;;;;;;;2.97;1.57;;;;;;;;;;5192075;23;20501;-90
2022/08/21 15:06:26;;;;;;;4.00;1.80;;;;;;;;;;5047327;28;20486;-92
2022/08/21 15:17:04;;;;;;;1.47;1.47;;;;;;;;;;5812319;23;21745;-91
2022/08/21 15:19:36;;;;;;;2.03;1.93;;;;;;;;;;5022477;28;20450;-93
2022/08/21 15:22:02;;;;;;;3.30;1.80;;;;;;;;;;5011012;28;20450;-91
2022/08/21 15:24:28;;;;;;;1.83;1.73;;;;;;;;;;5018739;28;20450;-92
2022/08/21 15:26:55;;;;;;;1.40;1.30;;;;;;;;;;5037326;28;20848;-92
2022/08/21 15:29:30;;;;;;;1.80;1.70;;;;;;;;;;5019574;28;20610;-93
2022/08/21 15:32:15;;;;;;;1.50;1.50;;;;;;;;;;5017328;28;20457;-90
2022/08/21 15:34:42;;;;;;;1.83;1.60;;;;;;;;;;5019368;28;20489;-91
2022/08/21 15:37:13;;;;;;;1.83;1.67;;;;;;;;;;5035477;28;20446;-92
2022/08/21 15:39:46;;;;;;;23.07;21.93;;;;;;;;;;5026845;28;20419;-90
2022/08/21 15:42:14;;;;;;;3.93;2.77;;;;;;;;;;5022554;28;20439;-92
2022/08/21 15:44:44;;;;;;;2.37;2.20;;;;;;;;;;5021408;28;20975;-91
2022/08/21 15:47:13;;;;;;;1.50;1.40;;;;;;;;;;5029084;28;20450;-89
2022/08/21 15:49:42;;;;;;;2.53;2.00;;;;;;;;;;5015949;28;20948;-92
2022/08/21 15:52:08;;;;;;;1.80;1.70;;;;;;;;;;5021851;28;20430;-90
2022/08/21 15:54:34;;;;;;;3.27;1.70;;;;;;;;;;5002863;28;20528;-90
2022/08/21 15:57:01;;;;;;;1.63;1.53;;;;;;;;;;5008188;28;20436;-89
2022/08/21 15:59:27;;;;;;;1.80;1.70;;;;;;;;;;5041444;28;20434;-89
2022/08/21 16:01:53;;;;;;;1.70;1.63;;;;;;;;;;5005471;28;20582;-90
2022/08/21 16:04:22;;;;;;;3.30;1.93;;;;;;;;;;5001691;28;20523;-88
2022/08/21 16:06:49;;;;;;;2.20;2.10;;;;;;;;;;5007981;28;20442;-88
2022/08/21 16:09:18;;;;;;;1.83;1.73;;;;;;;;;;5035450;28;20482;-89
2022/08/21 16:12:13;;;;;;;3.40;3.17;;;;;;;;;;5041635;28;20431;-93
2022/08/21 16:14:49;;;;;;;1.97;1.87;;;;;;;;;;5024868;28;20547;-91
2022/08/21 16:19:54;;;;;;;3.53;3.07;;;;;;;;;;4992692;28;20442;-92
2022/08/21 16:22:21;;;;;;;2.20;2.10;;;;;;;;;;5183345;23;20572;-91
2022/08/21 16:27:26;;;;;;;3.00;2.90;;;;;;;;;;5139028;23;20479;-91
2022/08/21 16:30:14;;;;;;;2.50;2.40;;;;;;;;;;4990061;28;20455;-93
2022/08/21 16:33:10;;;;;;;2.77;2.67;;;;;;;;;;4980830;28;20467;-91
2022/08/21 16:35:43;;;;;;;3.57;3.27;;;;;;;;;;4984260;28;20487;-89
2022/08/21 16:38:12;;;;;;;4.40;4.10;;;;;;;;;;4988336;28;20459;-92
2022/08/21 16:40:47;;;;;;;4.60;4.30;;;;;;;;;;5004756;28;20446;-93
2022/08/21 16:43:16;;;;;;;8.40;7.80;;;;;;;;;;4987325;28;20473;-91
2022/08/21 16:45:46;;;;;;;6.23;5.77;;;;;;;;;;4999923;28;20424;-93
2022/08/21 16:50:59;;;;;;;4.87;2.40;;;;;;;;;;5022912;23;20471;-94
2022/08/21 16:53:25;;;;;;;2.17;2.07;;;;;;;;;;4988726;28;20447;-90
2022/08/21 16:55:55;;;;;;;3.57;3.27;;;;;;;;;;5007215;28;20471;-93
2022/08/21 16:58:30;;;;;;;3.37;1.97;;;;;;;;;;5005282;28;20435;-92
2022/08/21 17:01:01;;;;;;;2.43;2.23;;;;;;;;;;4672875;28;10000003;-91
2022/08/21 17:03:47;;;;;;;3.40;2.63;;;;;;;;;;5008720;28;20514;-92
2022/08/21 17:06:32;;;;;;;4.27;3.83;;;;;;;;;;4996959;28;20433;-92
2022/08/21 17:09:00;;;;;;;4.20;3.90;;;;;;;;;;5007833;28;20446;-92
2022/08/21 17:11:52;;;;;;;6.80;5.27;;;;;;;;;;4990442;28;20467;-93
2022/08/21 17:14:35;;;;;;;5.53;5.13;;;;;;;;;;5227168;23;20565;-93
2022/08/21 17:17:03;;;;;;;4.90;4.50;;;;;;;;;;5024250;28;20489;-93
2022/08/21 17:19:29;;;;;;;3.57;3.37;;;;;;;;;;5030902;28;20435;-93
2022/08/21 17:21:55;;;;;;;3.40;3.30;;;;;;;;;;5030434;28;20606;-93
2022/08/21 17:24:21;;;;;;;4.37;3.87;;;;;;;;;;5026361;28;20439;-92
2022/08/21 17:26:51;;;;;;;4.30;4.10;;;;;;;;;;5041216;28;20516;-94
2022/08/21 17:29:19;;;;;;;3.77;3.47;;;;;;;;;;5038419;28;20430;-94
2022/08/21 17:31:45;;;;;;;2.33;2.23;;;;;;;;;;5031033;28;20438;-93
2022/08/21 17:37:10;;;;;;;3.50;1.90;;;;;;;;;;5047541;28;20447;-93
2022/08/21 17:39:47;;;;;;;2.87;2.63;;;;;;;;;;5030799;28;20419;-93
2022/08/21 17:42:21;;;;;;;2.30;1.53;;;;;;;;;;5058583;28;20506;-92
2022/08/21 17:44:47;;;;;;;2.00;2.00;;;;;;;;;;5024751;28;20466;-93
2022/08/21 17:50:34;;;;;;;3.20;3.00;;;;;;;;;;5000047;28;20435;-93
2022/08/21 17:53:03;;;;;;;5.00;2.43;;;;;;;;;;5019050;28;20450;-93
2022/08/21 17:55:33;;;;;;;1.73;1.70;;;;;;;;;;5019092;28;20475;-94
2022/08/21 17:58:03;;;;;;;2.43;2.33;;;;;;;;;;5029854;28;20439;-94
2022/08/21 18:01:09;;;;;;;1.97;1.87;;;;;;;;;;5001467;28;20436;-95
2022/08/21 18:03:42;;;;;;;2.63;2.47;;;;;;;;;;5005751;28;20443;-95
2022/08/21 18:06:08;;;;;;;2.37;2.17;;;;;;;;;;4992710;28;20964;-96
2022/08/21 18:08:42;;;;;;;4.47;2.27;;;;;;;;;;5009481;28;20427;-92
2022/08/21 18:11:11;;;;;;;2.00;1.77;;;;;;;;;;5006614;28;20455;-93
2022/08/21 18:13:44;;;;;;;2.50;2.30;;;;;;;;;;5019754;28;20475;-95
2022/08/21 18:16:17;;;;;;;4.13;3.97;;;;;;;;;;5018590;28;20440;-93
2022/08/21 18:18:44;;;;;;;2.10;1.97;;;;;;;;;;4998502;28;20416;-95
2022/08/21 18:21:11;;;;;;;2.20;2.00;;;;;;;;;;5037322;28;20439;-93
2022/08/21 18:23:45;;;;;;;4.53;2.30;;;;;;;;;;5025795;28;20413;-95
2022/08/21 18:26:24;;;;;;;2.53;2.43;;;;;;;;;;5213566;23;20483;-93
2022/08/21 18:29:00;;;;;;;4.37;3.97;;;;;;;;;;5000975;28;20451;-93
2022/08/21 18:31:44;;;;;;;5.23;4.80;;;;;;;;;;5015664;28;20421;-94
2022/08/21 18:34:22;;;;;;;5.77;5.10;;;;;;;;;;5017554;28;20466;-91
2022/08/21 18:36:50;;;;;;;5.57;5.20;;;;;;;;;;5009077;28;20456;-93
2022/08/21 18:39:16;;;;;;;11.60;10.43;;;;;;;;;;5003007;28;20533;-94
2022/08/21 18:41:49;;;;;;;9.30;8.40;;;;;;;;;;5000385;28;20465;-94
2022/08/21 18:44:22;;;;;;;11.53;10.43;;;;;;;;;;4993825;28;20440;-94
2022/08/21 18:47:03;;;;;;;10.97;9.77;;;;;;;;;;5008112;28;20937;-94
2022/08/21 18:49:36;;;;;;;11.00;6.20;;;;;;;;;;5008377;28;20459;-95
2022/08/21 18:52:05;;;;;;;6.47;4.00;;;;;;;;;;5010959;28;20499;-94
2022/08/21 18:54:41;;;;;;;3.60;2.70;;;;;;;;;;5008073;28;20587;-96
2022/08/21 18:57:08;;;;;;;4.33;2.53;;;;;;;;;;4991233;28;20436;-95
2022/08/21 18:59:36;;;;;;;2.70;2.60;;;;;;;;;;5001997;28;20440;-92
2022/08/21 19:02:06;;;;;;;3.40;3.00;;;;;;;;;;4995199;28;20416;-92
2022/08/21 19:07:24;;;;;;;3.80;3.43;;;;;;;;;;5010921;28;20511;-94
2022/08/21 19:12:43;;;;;;;3.23;2.90;;;;;;;;;;5405555;23;20488;-93
2022/08/21 19:20:41;;;;;;;2.17;2.07;;;;;;;;;;5736870;23;20661;-90
2022/08/21 19:31:47;;;;;;;3.07;2.90;;;;;;;;;;5049018;23;20491;-92
2022/08/21 19:34:36;;;;;;;4.90;2.90;;;;;;;;;;5030688;28;20537;-94
2022/08/21 19:37:26;;;;;;;2.37;2.27;;;;;;;;;;5009093;28;20436;-91
2022/08/21 19:40:09;;;;;;;2.23;2.13;;;;;;;;;;5220413;23;20533;-93
2022/08/21 19:42:39;;;;;;;4.07;2.73;;;;;;;;;;4973837;28;20421;-93
2022/08/21 19:45:08;;;;;;;2.90;2.70;;;;;;;;;;4983268;28;20422;-93
2022/08/21 19:47:35;;;;;;;2.90;2.60;;;;;;;;;;4974466;28;20569;-94
2022/08/21 19:50:08;;;;;;;8.20;4.30;;;;;;;;;;4971842;28;20453;-95
2022/08/21 19:52:44;;;;;;;5.03;3.73;;;;;;;;;;4966422;28;20515;-93
2022/08/21 19:55:10;;;;;;;3.40;2.30;;;;;;;;;;4978386;28;20536;-95
2022/08/21 19:57:38;;;;;;;3.03;2.73;;;;;;;;;;4971845;28;20454;-93